createdAt,value
2018-02-18T16:37:42.522Z,24.80
2018-02-18T16:40:10.908Z,21.37
2018-02-18T16:42:39.231Z,21.33
2018-02-18T16:45:06.752Z,19.93
2018-02-18T16:47:35.038Z,17.60
2018-02-18T16:50:03.327Z,19.93
2018-02-18T16:52:30.880Z,20.57
2018-02-18T16:54:59.275Z,21.37
2018-02-18T16:57:26.876Z,19.47
2018-02-18T16:59:54.401Z,17.27
2018-02-18T17:02:21.958Z,19.53
2018-02-18T17:04:49.531Z,17.00
2018-02-18T17:07:17.505Z,20.07
2018-02-18T17:09:45.058Z,16.77
2018-02-18T17:12:13.349Z,16.53
2018-02-18T17:14:40.874Z,17.83
2018-02-18T17:17:08.481Z,17.00
2018-02-18T17:19:36.006Z,18.10
2018-02-18T17:22:03.526Z,18.47
2018-02-18T17:24:31.044Z,15.93
2018-02-18T17:26:59.327Z,16.13
2018-02-18T17:29:27.621Z,17.50
2018-02-18T17:31:55.923Z,15.13
2018-02-18T17:34:23.466Z,16.20
2018-02-18T17:36:50.986Z,18.03
2018-02-18T17:39:18.515Z,18.13
2018-02-18T17:41:46.026Z,16.23
2018-02-18T17:44:13.622Z,18.33
2018-02-18T17:46:41.138Z,17.93
2018-02-18T17:49:08.690Z,17.60
2018-02-18T17:51:36.264Z,14.03
2018-02-18T17:54:03.804Z,17.60
2018-02-18T17:56:31.338Z,17.20
2018-02-18T17:58:58.866Z,14.37
2018-02-18T18:01:26.462Z,14.33
2018-02-18T18:03:54.754Z,15.10
2018-02-18T18:06:22.298Z,15.23
2018-02-18T18:08:50.710Z,17.53
2018-02-18T18:11:18.268Z,14.53
2018-02-18T18:13:45.779Z,14.50
2018-02-18T18:16:13.388Z,15.73
2018-02-18T18:18:41.773Z,14.77
2018-02-18T18:21:10.043Z,18.90
2018-02-18T18:23:38.339Z,20.20
2018-02-18T18:26:05.860Z,17.33
2018-02-18T18:28:33.404Z,16.50
2018-02-18T18:31:00.915Z,17.20
2018-02-18T18:33:29.189Z,17.93
2018-02-18T18:35:57.488Z,20.40
2018-02-18T18:38:25.006Z,18.77
2018-02-18T18:40:52.531Z,18.17
2018-02-18T18:43:20.078Z,20.13
2018-02-18T18:45:47.596Z,17.40
2018-02-18T18:48:15.129Z,18.17
2018-02-18T18:50:42.647Z,20.87
2018-02-18T18:53:10.169Z,19.20
2018-02-18T18:55:37.794Z,18.67
2018-02-18T18:58:06.178Z,18.80
2018-02-18T19:00:34.558Z,19.13
2018-02-18T19:03:02.959Z,21.80
2018-02-18T19:05:30.478Z,21.37
2018-02-18T19:07:58.006Z,19.73
2018-02-18T19:10:25.550Z,19.07
2018-02-18T19:12:53.132Z,21.00
2018-02-18T19:15:20.667Z,20.57
2018-02-18T19:17:48.241Z,20.50
2018-02-18T19:20:15.764Z,21.40
2018-02-18T19:22:43.362Z,22.07
2018-02-18T19:25:10.879Z,22.27
2018-02-18T19:27:38.486Z,19.47
2018-02-18T19:30:06.919Z,23.13
2018-02-18T19:32:35.067Z,18.57
2018-02-18T19:35:02.618Z,20.83
2018-02-18T19:37:30.142Z,21.07
2018-02-18T19:39:57.734Z,23.33
2018-02-18T19:42:26.013Z,22.20
2018-02-18T19:44:54.315Z,20.87
2018-02-18T19:47:21.876Z,21.70
2018-02-18T19:49:49.390Z,26.10
2018-02-18T19:52:16.903Z,21.77
2018-02-18T19:54:45.365Z,24.40
2018-02-18T19:57:13.759Z,23.77
2018-02-18T19:59:42.052Z,22.83
2018-02-18T20:02:10.186Z,28.00
2018-02-18T20:04:37.730Z,22.80
2018-02-18T20:07:05.346Z,21.63
2018-02-18T20:09:32.862Z,22.03
2018-02-18T20:12:00.483Z,22.43
2018-02-18T20:14:28.689Z,23.63
2018-02-18T20:16:56.200Z,23.77
2018-02-18T20:19:24.490Z,21.33
2018-02-18T20:21:52.812Z,26.00
2018-02-18T20:24:20.335Z,25.80
2018-02-18T20:26:48.613Z,23.67
2018-02-18T20:29:16.915Z,23.90
2018-02-18T20:31:44.472Z,22.17
2018-02-18T20:34:11.988Z,21.93
2018-02-18T20:36:39.497Z,23.43
2018-02-18T20:39:07.888Z,23.83
2018-02-18T20:41:35.404Z,24.30
2018-02-18T20:44:02.936Z,24.07
2018-02-18T20:46:30.450Z,21.80
2018-02-18T20:48:58.732Z,20.73
2018-02-18T20:51:27.025Z,22.63
2018-02-18T20:53:55.310Z,25.17
2018-02-18T20:56:23.754Z,23.63
